createdAt,value
2019-04-06T00:01:48.497Z,4.99
2019-04-06T00:04:22.228Z,4.94
2019-04-06T00:06:55.826Z,4.92
2019-04-06T00:09:29.467Z,4.94
2019-04-06T00:12:03.068Z,5.00
2019-04-06T00:14:38.393Z,5.05
2019-04-06T00:17:12.066Z,5.14
2019-04-06T00:19:46.242Z,5.23
2019-04-06T00:22:20.030Z,5.21
2019-04-06T00:24:54.033Z,5.19
2019-04-06T00:27:27.669Z,5.25
2019-04-06T00:30:01.321Z,5.23
2019-04-06T00:32:42.374Z,5.31
2019-04-06T00:35:16.021Z,5.34
2019-04-06T00:37:50.097Z,5.34
2019-04-06T00:40:24.296Z,5.29
2019-04-06T00:42:58.199Z,5.35
2019-04-06T00:45:32.279Z,5.33
2019-04-06T00:48:06.063Z,5.43
2019-04-06T00:50:39.720Z,5.50
2019-04-06T00:53:13.357Z,5.61
2019-04-06T00:55:55.543Z,5.60
2019-04-06T00:58:22.390Z,5.61
2019-04-06T01:00:56.113Z,5.60
2019-04-06T01:03:30.152Z,5.66
2019-04-06T01:06:03.878Z,5.64
2019-04-06T01:08:37.484Z,5.66
2019-04-06T01:11:11.196Z,5.58
2019-04-06T01:13:44.901Z,5.45
2019-04-06T01:16:18.705Z,5.68
2019-04-06T01:18:52.439Z,5.91
2019-04-06T01:21:26.338Z,5.87
2019-04-06T01:24:00.021Z,5.79
2019-04-06T01:26:33.780Z,5.71
2019-04-06T01:29:07.359Z,5.67
2019-04-06T01:31:41.110Z,5.73
2019-04-06T01:34:14.713Z,5.70
2019-04-06T01:36:48.364Z,5.72
2019-04-06T01:39:22.025Z,5.80
2019-04-06T01:41:55.740Z,5.66
2019-04-06T01:44:29.463Z,5.76
2019-04-06T01:47:03.243Z,5.58
2019-04-06T01:49:36.967Z,5.55
2019-04-06T01:52:10.715Z,5.56
2019-04-06T01:54:44.811Z,5.51
2019-04-06T01:57:18.579Z,5.48
2019-04-06T01:59:52.568Z,5.56
2019-04-06T02:02:34.887Z,5.49
2019-04-06T02:05:09.281Z,5.42
2019-04-06T02:07:43.008Z,5.37
2019-04-06T02:10:16.976Z,5.29
2019-04-06T02:12:50.694Z,5.24
2019-04-06T02:15:24.383Z,5.21
2019-04-06T02:17:58.101Z,5.29
2019-04-06T02:20:31.732Z,5.16
2019-04-06T02:23:05.371Z,5.22
2019-04-06T02:25:39.361Z,5.07
2019-04-06T02:28:13.465Z,4.91
2019-04-06T02:30:59.985Z,4.89
2019-04-06T02:34:07.578Z,4.81
2019-04-06T02:37:02.990Z,4.79
2019-04-06T02:40:07.690Z,4.80
2019-04-06T02:42:51.243Z,4.77
2019-04-06T02:45:25.203Z,4.71
2019-04-06T02:47:58.946Z,4.80
2019-04-06T02:50:33.059Z,4.82
2019-04-06T02:53:06.819Z,4.80
2019-04-06T02:55:40.502Z,4.74
2019-04-06T02:58:14.283Z,4.69
2019-04-06T03:00:47.953Z,4.66
2019-04-06T03:03:21.775Z,4.66
2019-04-06T03:05:55.472Z,4.65
2019-04-06T03:08:29.200Z,4.71
2019-04-06T03:11:02.989Z,4.82
2019-04-06T03:13:36.866Z,4.84
2019-04-06T03:16:10.780Z,4.87
2019-04-06T03:18:44.492Z,4.92
2019-04-06T03:21:18.239Z,5.05
2019-04-06T03:23:52.547Z,5.10
2019-04-06T03:26:26.442Z,5.02
2019-04-06T03:29:00.492Z,4.99
2019-04-06T03:31:34.275Z,5.07
2019-04-06T03:34:08.039Z,5.25
2019-04-06T03:36:41.718Z,5.34
2019-04-06T03:39:15.353Z,5.14
2019-04-06T03:41:49.047Z,5.05
2019-04-06T03:47:05.767Z,5.14
2019-04-06T03:49:39.469Z,5.05
2019-04-06T03:52:13.135Z,5.03
2019-04-06T03:54:46.776Z,4.94
2019-04-06T03:57:20.340Z,4.89
2019-04-06T03:59:54.048Z,4.90
2019-04-06T04:02:27.792Z,4.88
2019-04-06T04:05:02.226Z,4.86
2019-04-06T04:07:35.814Z,4.89
2019-04-06T04:10:10.075Z,4.92
2019-04-06T04:12:43.697Z,4.94
2019-04-06T04:15:18.109Z,5.03
2019-04-06T04:17:52.872Z,4.92
2019-04-06T04:20:26.498Z,4.79
2019-04-06T04:23:00.182Z,4.71
2019-04-06T04:25:33.960Z,4.69
2019-04-06T04:28:08.393Z,4.72
2019-04-06T04:30:42.169Z,4.69
2019-04-06T04:33:15.826Z,4.63
2019-04-06T04:35:49.460Z,4.66
2019-04-06T04:38:23.123Z,4.67
2019-04-06T04:40:56.822Z,4.65
2019-04-06T04:43:30.508Z,4.57
2019-04-06T04:46:04.301Z,4.62
2019-04-06T04:48:37.949Z,4.67
2019-04-06T04:51:11.521Z,4.63
2019-04-06T04:53:45.693Z,4.67
2019-04-06T04:56:19.454Z,4.68
2019-04-06T04:58:53.268Z,4.72
2019-04-06T05:01:26.934Z,4.68
2019-04-06T05:04:01.226Z,4.62
2019-04-06T05:06:34.808Z,4.58
2019-04-06T05:09:09.475Z,4.58
2019-04-06T05:11:43.540Z,4.58
2019-04-06T05:15:00.170Z,4.58
2019-04-06T05:17:34.355Z,4.59
2019-04-06T05:20:09.845Z,4.66
2019-04-06T05:22:43.466Z,4.41
2019-04-06T05:25:23.096Z,4.26
2019-04-06T05:27:56.737Z,4.13
2019-04-06T05:30:30.522Z,4.08
2019-04-06T05:33:07.586Z,4.02
2019-04-06T05:35:41.242Z,4.06
2019-04-06T05:38:15.412Z,4.20
2019-04-06T05:40:50.408Z,4.00
2019-04-06T05:43:25.708Z,4.19
2019-04-06T05:45:59.449Z,4.28
2019-04-06T05:48:38.985Z,4.42
2019-04-06T05:51:15.553Z,4.58
2019-04-06T05:54:09.158Z,4.56
2019-04-06T05:56:42.823Z,4.56
2019-04-06T05:59:16.621Z,4.65
2019-04-06T06:01:50.952Z,4.89
2019-04-06T06:04:27.763Z,4.91
2019-04-06T06:07:20.477Z,5.10
2019-04-06T06:10:15.203Z,5.25
2019-04-06T06:12:48.877Z,5.13
2019-04-06T06:15:28.248Z,5.33
2019-04-06T06:18:02.150Z,5.40
2019-04-06T06:20:35.796Z,5.63
2019-04-06T06:23:10.382Z,5.57
2019-04-06T06:25:44.081Z,6.01
2019-04-06T06:28:17.664Z,6.34
2019-04-06T06:30:51.300Z,6.75
2019-04-06T06:33:24.849Z,7.07
2019-04-06T06:35:58.689Z,7.61
2019-04-06T06:38:32.236Z,7.76
2019-04-06T06:41:05.990Z,7.93
2019-04-06T06:43:39.589Z,8.22
2019-04-06T06:46:13.227Z,8.35
2019-04-06T06:48:46.903Z,8.38
2019-04-06T06:51:36.511Z,8.45
2019-04-06T06:54:10.065Z,8.21
2019-04-06T06:56:44.213Z,8.80
2019-04-06T06:59:17.998Z,9.06
2019-04-06T07:01:51.704Z,9.13
2019-04-06T07:04:26.552Z,9.89
2019-04-06T07:07:00.157Z,10.31
2019-04-06T07:09:33.808Z,10.46
2019-04-06T07:12:07.855Z,10.61
2019-04-06T07:14:41.587Z,10.23
2019-04-06T07:17:15.392Z,9.83
2019-04-06T07:19:49.091Z,10.55
2019-04-06T07:22:22.706Z,11.14
2019-04-06T07:24:56.281Z,11.52
2019-04-06T07:27:29.956Z,11.10
2019-04-06T07:30:03.596Z,10.52
2019-04-06T07:32:37.177Z,11.11
2019-04-06T07:35:11.217Z,10.41
2019-04-06T07:37:45.175Z,10.26
2019-04-06T07:40:19.149Z,11.41
2019-04-06T07:42:52.739Z,11.62
2019-04-06T07:45:26.729Z,11.62
2019-04-06T07:48:00.350Z,11.83
2019-04-06T07:50:33.914Z,11.34
2019-04-06T07:53:07.553Z,11.97
2019-04-06T07:55:45.669Z,13.07
2019-04-06T07:58:20.504Z,13.39
2019-04-06T08:00:54.597Z,11.63
2019-04-06T08:03:28.385Z,11.98
2019-04-06T08:06:03.767Z,12.16
2019-04-06T08:08:37.407Z,11.16
2019-04-06T08:11:11.624Z,10.75
2019-04-06T08:14:19.446Z,11.17
2019-04-06T08:16:49.063Z,10.56
2019-04-06T08:19:23.173Z,10.18
2019-04-06T08:21:56.842Z,10.25
2019-04-06T08:24:31.721Z,10.51
2019-04-06T08:27:05.723Z,10.59
2019-04-06T08:29:39.470Z,10.44
2019-04-06T08:32:16.615Z,10.67
2019-04-06T08:34:50.263Z,10.34
2019-04-06T08:37:24.483Z,10.81
2019-04-06T08:39:58.912Z,11.66
2019-04-06T08:42:32.539Z,11.18
2019-04-06T08:45:06.710Z,11.00
2019-04-06T08:47:40.539Z,11.94
2019-04-06T08:50:15.218Z,12.18
2019-04-06T08:52:49.113Z,11.65
2019-04-06T08:55:27.133Z,11.91
2019-04-06T08:58:05.751Z,12.76
2019-04-06T09:00:39.360Z,13.25
2019-04-06T09:03:13.875Z,12.89
2019-04-06T09:05:47.759Z,12.59
2019-04-06T09:08:21.453Z,12.37
2019-04-06T09:10:56.872Z,12.21
2019-04-06T09:13:30.564Z,12.64
2019-04-06T09:16:04.262Z,12.79
2019-04-06T09:18:39.721Z,13.07
2019-04-06T09:21:25.636Z,12.64
2019-04-06T09:23:59.355Z,13.03
2019-04-06T09:26:33.404Z,13.50
2019-04-06T09:29:08.251Z,14.07
2019-04-06T09:31:42.256Z,13.35
2019-04-06T09:34:17.270Z,13.93
2019-04-06T09:36:50.830Z,13.78
2019-04-06T09:39:24.460Z,13.42
2019-04-06T09:41:58.103Z,13.06
2019-04-06T15:50:58.193Z,20.23
2019-04-06T15:53:42.213Z,20.05
2019-04-06T15:56:26.321Z,20.11
2019-04-06T15:59:21.701Z,20.18
2019-04-06T16:02:09.647Z,20.23
2019-04-06T16:05:11.025Z,20.30
2019-04-06T16:08:01.406Z,20.07
2019-04-06T16:10:45.881Z,20.16
2019-04-06T16:13:43.474Z,20.12
2019-04-06T16:16:35.870Z,20.11
2019-04-06T16:19:18.881Z,20.03
2019-04-06T16:21:59.618Z,20.08
2019-04-06T16:24:58.544Z,20.06
2019-04-06T16:28:09.156Z,19.86
2019-04-06T16:30:52.966Z,19.94
2019-04-06T16:33:43.816Z,19.89
2019-04-06T16:36:34.485Z,19.87
2019-04-06T16:39:27.780Z,19.86
2019-04-06T16:42:19.050Z,19.83
2019-04-06T16:45:14.667Z,19.72
2019-04-06T16:48:13.532Z,19.57
2019-04-06T16:51:18.665Z,19.39
2019-04-06T16:54:11.433Z,19.41
2019-04-06T16:57:02.691Z,19.24
2019-04-06T17:00:01.687Z,19.24
2019-04-06T17:02:59.312Z,19.21
2019-04-06T17:06:04.217Z,19.25
2019-04-06T17:08:54.279Z,19.11
2019-04-06T17:11:56.632Z,19.01
2019-04-06T17:15:04.187Z,18.87
2019-04-06T17:17:58.922Z,18.74
2019-04-06T17:20:40.705Z,18.50
2019-04-06T17:23:31.859Z,18.38
2019-04-06T17:26:14.157Z,18.24
2019-04-06T17:29:07.966Z,18.17
2019-04-06T17:32:15.955Z,18.17
2019-04-06T17:35:22.120Z,18.12
2019-04-06T17:38:00.403Z,17.88
2019-04-06T17:40:51.097Z,17.69
2019-04-06T17:43:47.500Z,17.58
2019-04-06T17:46:31.560Z,17.49
2019-04-06T17:49:24.785Z,17.51
2019-04-06T17:52:16.560Z,17.34
2019-04-06T17:55:02.062Z,17.13
2019-04-06T17:58:11.146Z,17.02
2019-04-06T18:01:02.781Z,16.89
2019-04-06T18:03:59.946Z,16.78
2019-04-06T18:06:59.059Z,16.72
2019-04-06T18:09:42.762Z,16.54
2019-04-06T18:12:41.826Z,16.43
2019-04-06T18:15:16.771Z,16.26
2019-04-06T18:17:50.474Z,16.29
2019-04-06T18:20:24.334Z,16.30
2019-04-06T18:22:59.230Z,16.24
2019-04-06T18:25:33.183Z,16.34
2019-04-06T18:28:07.435Z,16.28
2019-04-06T18:30:42.073Z,16.15
2019-04-06T18:33:19.859Z,16.05
2019-04-06T18:35:54.073Z,15.96
2019-04-06T18:38:42.706Z,15.91
2019-04-06T18:41:15.868Z,15.67
2019-04-06T18:43:50.368Z,15.55
2019-04-06T18:46:24.185Z,15.41
2019-04-06T18:48:57.809Z,15.34
2019-04-06T18:51:32.095Z,15.27
2019-04-06T18:54:08.330Z,15.23
2019-04-06T18:56:42.295Z,15.55
2019-04-06T18:59:16.030Z,15.89
2019-04-06T19:01:49.737Z,15.82
2019-04-06T19:04:23.831Z,15.85
2019-04-06T19:06:57.602Z,15.77
2019-04-06T19:09:31.571Z,15.86
2019-04-06T19:12:05.331Z,15.96
2019-04-06T19:14:39.429Z,15.90
2019-04-06T19:17:13.312Z,15.83
2019-04-06T19:19:46.991Z,15.90
2019-04-06T19:22:21.234Z,15.99
2019-04-06T19:24:55.414Z,15.80
2019-04-06T19:27:29.577Z,15.84
2019-04-06T19:30:03.774Z,15.68
2019-04-06T19:32:38.960Z,15.57
2019-04-06T19:35:13.254Z,15.41
2019-04-06T19:37:47.609Z,15.28
2019-04-06T19:40:24.030Z,15.17
2019-04-06T19:42:58.285Z,15.24
2019-04-06T19:45:32.639Z,15.32
2019-04-06T19:48:06.651Z,15.28
2019-04-06T19:50:40.968Z,15.25
2019-04-06T19:53:16.816Z,15.09
2019-04-06T19:55:50.911Z,15.00
2019-04-06T19:58:25.836Z,15.15
2019-04-06T20:01:00.327Z,15.22
2019-04-06T20:03:39.283Z,15.17
2019-04-06T20:06:13.312Z,15.13
2019-04-06T20:08:48.643Z,15.29
2019-04-06T20:11:22.762Z,15.30
2019-04-06T20:13:57.177Z,15.37
2019-04-06T20:16:31.862Z,15.47
2019-04-06T20:19:05.722Z,15.37
2019-04-06T20:21:40.071Z,15.41
2019-04-06T20:24:14.409Z,15.39
2019-04-06T20:26:48.172Z,15.39
2019-04-06T20:29:22.238Z,15.30
2019-04-06T20:31:56.351Z,15.29
2019-04-06T20:34:31.412Z,15.18
2019-04-06T20:37:05.516Z,15.07
2019-04-06T20:39:39.548Z,14.95
2019-04-06T20:42:13.335Z,14.83
2019-04-06T20:44:47.256Z,14.92
2019-04-06T20:47:21.551Z,14.65
2019-04-06T20:49:56.452Z,14.65
2019-04-06T20:52:30.594Z,14.69
2019-04-06T20:55:04.502Z,14.63
2019-04-06T20:57:38.517Z,14.66
2019-04-06T21:00:12.661Z,14.54
2019-04-06T21:02:46.568Z,14.50
2019-04-06T21:05:20.196Z,14.48
2019-04-06T21:07:54.380Z,14.43
2019-04-06T21:10:29.229Z,14.38
2019-04-06T21:13:04.330Z,14.30
2019-04-06T21:15:38.524Z,14.30
2019-04-06T21:18:12.501Z,14.15
2019-04-06T21:20:46.455Z,14.16
2019-04-06T21:23:20.689Z,14.14
2019-04-06T21:25:57.550Z,14.14
2019-04-06T21:28:32.183Z,14.09
2019-04-06T21:31:06.525Z,14.12
2019-04-06T21:33:40.277Z,14.09
2019-04-06T21:36:14.138Z,14.01
2019-04-06T21:38:48.178Z,13.97
2019-04-06T21:41:22.245Z,14.01
2019-04-06T21:43:58.465Z,13.96
2019-04-06T21:46:32.643Z,13.96
2019-04-06T21:49:06.452Z,13.79
2019-04-06T21:51:40.823Z,13.76
2019-04-06T21:54:14.798Z,13.75
2019-04-06T21:56:49.069Z,13.72
2019-04-06T21:59:23.429Z,13.68
2019-04-06T22:01:58.062Z,13.72
2019-04-06T22:04:33.675Z,13.54
2019-04-06T22:07:08.735Z,13.52
2019-04-06T22:09:42.409Z,13.49
2019-04-06T22:12:16.300Z,13.50
2019-04-06T22:14:50.600Z,13.51
2019-04-06T22:17:24.470Z,13.42
2019-04-06T22:19:58.269Z,13.41
2019-04-06T22:22:32.520Z,13.42
2019-04-06T22:25:06.648Z,13.35
2019-04-06T22:27:40.274Z,13.31
2019-04-06T22:30:14.850Z,13.29
2019-04-06T22:32:49.076Z,13.26
2019-04-06T22:35:23.242Z,13.21
2019-04-06T22:37:57.323Z,13.14
2019-04-06T22:40:31.475Z,13.10
2019-04-06T22:43:05.339Z,13.07
2019-04-06T22:45:39.273Z,12.94
2019-04-06T22:48:13.694Z,12.93
2019-04-06T22:50:47.524Z,12.78
2019-04-06T22:53:21.121Z,12.82
2019-04-06T22:55:55.183Z,12.67
2019-04-06T22:58:28.920Z,12.64
2019-04-06T23:01:07.959Z,12.70
2019-04-06T23:03:59.560Z,12.84
2019-04-06T23:06:37.397Z,12.75
2019-04-06T23:09:11.192Z,12.86
2019-04-06T23:11:45.856Z,12.86
2019-04-06T23:14:20.784Z,12.79
2019-04-06T23:16:55.252Z,12.52
2019-04-06T23:19:29.400Z,12.33
2019-04-06T23:22:03.623Z,12.23
2019-04-06T23:24:37.491Z,12.02
2019-04-06T23:27:11.533Z,12.02
2019-04-06T23:29:45.100Z,11.94
2019-04-06T23:32:18.722Z,11.89
2019-04-06T23:34:59.478Z,11.85
2019-04-06T23:37:27.680Z,11.80
2019-04-06T23:40:01.646Z,11.89
2019-04-06T23:42:35.692Z,11.94
2019-04-06T23:45:09.442Z,11.96
2019-04-06T23:47:43.436Z,12.12
2019-04-06T23:50:17.654Z,12.03
2019-04-06T23:52:51.643Z,11.94
2019-04-06T23:55:25.184Z,11.94
2019-04-06T23:57:58.929Z,11.80
